sensor_id;sensor_type;location;lat;lon;timestamp;pressure;altitude;pressure_sealevel;temperature
75822;BMP180;64454;51.984;9.838;2023-03-16T00:01:05;100701.00;;;0.80
75822;BMP180;64454;51.984;9.838;2023-03-16T00:03:32;100714.00;;;0.80
75822;BMP180;64454;51.984;9.838;2023-03-16T00:05:59;100708.00;;;0.60
75822;BMP180;64454;51.984;9.838;2023-03-16T00:08:26;100712.00;;;0.40
75822;BMP180;64454;51.984;9.838;2023-03-16T00:10:52;100713.00;;;0.50
75822;BMP180;64454;51.984;9.838;2023-03-16T00:13:22;100706.00;;;0.80
75822;BMP180;64454;51.984;9.838;2023-03-16T00:15:51;100707.00;;;0.70
75822;BMP180;64454;51.984;9.838;2023-03-16T00:18:19;100714.00;;;0.30
75822;BMP180;64454;51.984;9.838;2023-03-16T00:20:50;100701.00;;;0.50
75822;BMP180;64454;51.984;9.838;2023-03-16T00:23:17;100711.00;;;0.50
75822;BMP180;64454;51.984;9.838;2023-03-16T00:25:44;100707.00;;;0.30
75822;BMP180;64454;51.984;9.838;2023-03-16T00:28:11;100703.00;;;0.50
75822;BMP180;64454;51.984;9.838;2023-03-16T00:30:39;100699.00;;;0.70
75822;BMP180;64454;51.984;9.838;2023-03-16T00:33:06;100701.00;;;0.70
75822;BMP180;64454;51.984;9.838;2023-03-16T00:35:33;100700.00;;;1.00
75822;BMP180;64454;51.984;9.838;2023-03-16T00:38:00;100700.00;;;0.50
75822;BMP180;64454;51.984;9.838;2023-03-16T00:40:26;100693.00;;;0.60
75822;BMP180;64454;51.984;9.838;2023-03-16T00:42:53;100693.00;;;0.80
75822;BMP180;64454;51.984;9.838;2023-03-16T00:45:20;100699.00;;;0.60
75822;BMP180;64454;51.984;9.838;2023-03-16T00:47:49;100699.00;;;0.80
75822;BMP180;64454;51.984;9.838;2023-03-16T00:50:19;100697.00;;;0.70
75822;BMP180;64454;51.984;9.838;2023-03-16T00:52:46;100695.00;;;0.60
75822;BMP180;64454;51.984;9.838;2023-03-16T00:55:13;100697.00;;;0.50
75822;BMP180;64454;51.984;9.838;2023-03-16T00:57:40;100686.00;;;0.50
75822;BMP180;64454;51.984;9.838;2023-03-16T01:00:09;100696.00;;;0.60
75822;BMP180;64454;51.984;9.838;2023-03-16T01:02:39;100683.00;;;0.50
75822;BMP180;64454;51.984;9.838;2023-03-16T01:05:09;100691.00;;;0.30
75822;BMP180;64454;51.984;9.838;2023-03-16T01:07:37;100695.00;;;0.60
75822;BMP180;64454;51.984;9.838;2023-03-16T01:10:06;100689.00;;;0.70
75822;BMP180;64454;51.984;9.838;2023-03-16T01:12:34;100692.00;;;0.70
75822;BMP180;64454;51.984;9.838;2023-03-16T01:15:01;100685.00;;;0.70
75822;BMP180;64454;51.984;9.838;2023-03-16T01:17:28;100687.00;;;0.70
75822;BMP180;64454;51.984;9.838;2023-03-16T01:19:59;100674.00;;;0.70
75822;BMP180;64454;51.984;9.838;2023-03-16T01:22:27;100681.00;;;0.10
75822;BMP180;64454;51.984;9.838;2023-03-16T01:24:54;100682.00;;;0.40
75822;BMP180;64454;51.984;9.838;2023-03-16T01:27:21;100678.00;;;0.50
75822;BMP180;64454;51.984;9.838;2023-03-16T01:29:50;100669.00;;;0.60
75822;BMP180;64454;51.984;9.838;2023-03-16T01:32:17;100670.00;;;0.50
75822;BMP180;64454;51.984;9.838;2023-03-16T01:34:44;100674.00;;;0.40
75822;BMP180;64454;51.984;9.838;2023-03-16T01:37:10;100682.00;;;0.30
75822;BMP180;64454;51.984;9.838;2023-03-16T01:39:39;100678.00;;;0.40
75822;BMP180;64454;51.984;9.838;2023-03-16T01:42:06;100671.00;;;0.20
75822;BMP180;64454;51.984;9.838;2023-03-16T01:44:49;100670.00;;;0.30
75822;BMP180;64454;51.984;9.838;2023-03-16T01:47:16;100665.00;;;0.30
75822;BMP180;64454;51.984;9.838;2023-03-16T01:49:44;100664.00;;;-0.30
75822;BMP180;64454;51.984;9.838;2023-03-16T01:52:18;100662.00;;;-0.30
75822;BMP180;64454;51.984;9.838;2023-03-16T01:54:53;100667.00;;;0.10
75822;BMP180;64454;51.984;9.838;2023-03-16T01:57:23;100658.00;;;-0.10
75822;BMP180;64454;51.984;9.838;2023-03-16T01:59:56;100664.00;;;-0.20
75822;BMP180;64454;51.984;9.838;2023-03-16T02:02:34;100672.00;;;-0.10
75822;BMP180;64454;51.984;9.838;2023-03-16T02:05:07;100663.00;;;0.20
75822;BMP180;64454;51.984;9.838;2023-03-16T02:07:43;100659.00;;;-0.20
75822;BMP180;64454;51.984;9.838;2023-03-16T02:10:15;100660.00;;;0.10
75822;BMP180;64454;51.984;9.838;2023-03-16T02:12:44;100663.00;;;-0.50
75822;BMP180;64454;51.984;9.838;2023-03-16T02:15:13;100665.00;;;-0.30
75822;BMP180;64454;51.984;9.838;2023-03-16T02:17:42;100677.00;;;-0.30
75822;BMP180;64454;51.984;9.838;2023-03-16T02:20:25;100673.00;;;-0.30
75822;BMP180;64454;51.984;9.838;2023-03-16T02:22:54;100665.00;;;-0.10
75822;BMP180;64454;51.984;9.838;2023-03-16T02:25:27;100659.00;;;-0.30
75822;BMP180;64454;51.984;9.838;2023-03-16T02:28:05;100650.00;;;-0.20
75822;BMP180;64454;51.984;9.838;2023-03-16T02:30:35;100655.00;;;-0.70
75822;BMP180;64454;51.984;9.838;2023-03-16T02:33:02;100653.00;;;-0.80
75822;BMP180;64454;51.984;9.838;2023-03-16T02:35:30;100655.00;;;-0.70
75822;BMP180;64454;51.984;9.838;2023-03-16T02:37:57;100653.00;;;-0.70
75822;BMP180;64454;51.984;9.838;2023-03-16T02:40:28;100642.00;;;-0.40
75822;BMP180;64454;51.984;9.838;2023-03-16T02:43:00;100649.00;;;-0.40
75822;BMP180;64454;51.984;9.838;2023-03-16T02:45:36;100637.00;;;-0.20
75822;BMP180;64454;51.984;9.838;2023-03-16T02:48:10;100631.00;;;-0.20
75822;BMP180;64454;51.984;9.838;2023-03-16T02:50:44;100635.00;;;-0.10
75822;BMP180;64454;51.984;9.838;2023-03-16T02:53:12;100628.00;;;-0.10
75822;BMP180;64454;51.984;9.838;2023-03-16T02:55:39;100621.00;;;0.20
75822;BMP180;64454;51.984;9.838;2023-03-16T02:58:06;100619.00;;;-0.10
75822;BMP180;64454;51.984;9.838;2023-03-16T03:00:33;100611.00;;;-0.20
75822;BMP180;64454;51.984;9.838;2023-03-16T03:03:02;100609.00;;;-0.20
75822;BMP180;64454;51.984;9.838;2023-03-16T03:05:28;100611.00;;;-0.60
75822;BMP180;64454;51.984;9.838;2023-03-16T03:07:56;100605.00;;;-0.50
75822;BMP180;64454;51.984;9.838;2023-03-16T03:10:23;100605.00;;;-0.60
75822;BMP180;64454;51.984;9.838;2023-03-16T03:12:49;100606.00;;;-0.60
75822;BMP180;64454;51.984;9.838;2023-03-16T03:15:17;100604.00;;;-0.50
75822;BMP180;64454;51.984;9.838;2023-03-16T03:17:44;100594.00;;;-0.30
75822;BMP180;64454;51.984;9.838;2023-03-16T03:20:13;100592.00;;;-0.40
75822;BMP180;64454;51.984;9.838;2023-03-16T03:22:43;100595.00;;;-0.40
75822;BMP180;64454;51.984;9.838;2023-03-16T03:25:11;100597.00;;;-0.50
75822;BMP180;64454;51.984;9.838;2023-03-16T03:27:39;100597.00;;;-0.40
75822;BMP180;64454;51.984;9.838;2023-03-16T03:30:09;100601.00;;;-0.20
75822;BMP180;64454;51.984;9.838;2023-03-16T03:32:37;100595.00;;;-0.40
75822;BMP180;64454;51.984;9.838;2023-03-16T03:35:05;100592.00;;;-0.30
75822;BMP180;64454;51.984;9.838;2023-03-16T03:37:34;100600.00;;;-0.30
75822;BMP180;64454;51.984;9.838;2023-03-16T03:40:00;100594.00;;;-0.40
75822;BMP180;64454;51.984;9.838;2023-03-16T03:42:35;100593.00;;;-0.30
75822;BMP180;64454;51.984;9.838;2023-03-16T03:45:02;100594.00;;;-0.30
75822;BMP180;64454;51.984;9.838;2023-03-16T03:47:29;100597.00;;;-0.20
75822;BMP180;64454;51.984;9.838;2023-03-16T03:49:56;100604.00;;;-0.30
75822;BMP180;64454;51.984;9.838;2023-03-16T03:52:23;100603.00;;;-0.30
75822;BMP180;64454;51.984;9.838;2023-03-16T03:54:51;100597.00;;;-0.40
75822;BMP180;64454;51.984;9.838;2023-03-16T03:57:18;100604.00;;;-0.20
75822;BMP180;64454;51.984;9.838;2023-03-16T03:59:44;100609.00;;;-0.30
75822;BMP180;64454;51.984;9.838;2023-03-16T04:02:12;100611.00;;;-0.10
75822;BMP180;64454;51.984;9.838;2023-03-16T04:04:40;100613.00;;;-0.30
75822;BMP180;64454;51.984;9.838;2023-03-16T04:07:07;100610.00;;;-0.20
75822;BMP180;64454;51.984;9.838;2023-03-16T04:09:34;100604.00;;;0.10
75822;BMP180;64454;51.984;9.838;2023-03-16T04:12:04;100615.00;;;-0.30
75822;BMP180;64454;51.984;9.838;2023-03-16T04:14:32;100606.00;;;-0.20
75822;BMP180;64454;51.984;9.838;2023-03-16T04:16:59;100603.00;;;-0.40
75822;BMP180;64454;51.984;9.838;2023-03-16T04:19:25;100602.00;;;-0.30
75822;BMP180;64454;51.984;9.838;2023-03-16T04:21:53;100603.00;;;-0.20
75822;BMP180;64454;51.984;9.838;2023-03-16T04:24:20;100607.00;;;-0.10
75822;BMP180;64454;51.984;9.838;2023-03-16T04:26:48;100610.00;;;0.00
75822;BMP180;64454;51.984;9.838;2023-03-16T04:29:16;100603.00;;;0.00
75822;BMP180;64454;51.984;9.838;2023-03-16T04:31:44;100605.00;;;0.00
75822;BMP180;64454;51.984;9.838;2023-03-16T04:34:12;100610.00;;;0.10
75822;BMP180;64454;51.984;9.838;2023-03-16T04:36:39;100610.00;;;0.10
75822;BMP180;64454;51.984;9.838;2023-03-16T04:39:07;100601.00;;;0.10
75822;BMP180;64454;51.984;9.838;2023-03-16T04:41:34;100596.00;;;0.00
75822;BMP180;64454;51.984;9.838;2023-03-16T04:44:01;100599.00;;;0.00
75822;BMP180;64454;51.984;9.838;2023-03-16T04:46:30;100602.00;;;-0.20
75822;BMP180;64454;51.984;9.838;2023-03-16T04:48:57;100603.00;;;-0.10
75822;BMP180;64454;51.984;9.838;2023-03-16T04:51:24;100603.00;;;-0.10
75822;BMP180;64454;51.984;9.838;2023-03-16T04:53:51;100608.00;;;0.00
75822;BMP180;64454;51.984;9.838;2023-03-16T04:56:19;100609.00;;;-0.20
75822;BMP180;64454;51.984;9.838;2023-03-16T04:58:47;100612.00;;;-0.20
75822;BMP180;64454;51.984;9.838;2023-03-16T05:01:15;100601.00;;;-0.10
75822;BMP180;64454;51.984;9.838;2023-03-16T05:03:44;100604.00;;;-0.20
75822;BMP180;64454;51.984;9.838;2023-03-16T05:06:11;100602.00;;;-0.40
75822;BMP180;64454;51.984;9.838;2023-03-16T05:08:38;100597.00;;;-0.50
75822;BMP180;64454;51.984;9.838;2023-03-16T05:11:05;100607.00;;;-0.40
75822;BMP180;64454;51.984;9.838;2023-03-16T05:13:32;100607.00;;;-0.60
75822;BMP180;64454;51.984;9.838;2023-03-16T05:15:59;100605.00;;;-0.50
75822;BMP180;64454;51.984;9.838;2023-03-16T05:18:26;100613.00;;;-0.70
75822;BMP180;64454;51.984;9.838;2023-03-16T05:20:55;100596.00;;;-0.50
75822;BMP180;64454;51.984;9.838;2023-03-16T05:23:22;100608.00;;;-0.60
75822;BMP180;64454;51.984;9.838;2023-03-16T05:25:50;100600.00;;;-0.50
75822;BMP180;64454;51.984;9.838;2023-03-16T05:28:16;100603.00;;;-0.50
75822;BMP180;64454;51.984;9.838;2023-03-16T05:30:43;100613.00;;;-0.60
75822;BMP180;64454;51.984;9.838;2023-03-16T05:33:10;100603.00;;;-0.50
75822;BMP180;64454;51.984;9.838;2023-03-16T05:35:37;100607.00;;;-0.40
75822;BMP180;64454;51.984;9.838;2023-03-16T05:38:05;100607.00;;;-0.30
75822;BMP180;64454;51.984;9.838;2023-03-16T05:40:33;100613.00;;;-0.30
75822;BMP180;64454;51.984;9.838;2023-03-16T05:43:02;100609.00;;;-0.20
75822;BMP180;64454;51.984;9.838;2023-03-16T05:45:29;100615.00;;;0.20
75822;BMP180;64454;51.984;9.838;2023-03-16T05:47:56;100603.00;;;-0.10
75822;BMP180;64454;51.984;9.838;2023-03-16T05:50:23;100591.00;;;-0.20
75822;BMP180;64454;51.984;9.838;2023-03-16T05:52:50;100589.00;;;0.00
75822;BMP180;64454;51.984;9.838;2023-03-16T05:55:19;100587.00;;;-0.10
75822;BMP180;64454;51.984;9.838;2023-03-16T05:57:46;100587.00;;;0.10
75822;BMP180;64454;51.984;9.838;2023-03-16T06:00:15;100590.00;;;-0.10
75822;BMP180;64454;51.984;9.838;2023-03-16T06:02:44;100595.00;;;0.10
75822;BMP180;64454;51.984;9.838;2023-03-16T06:05:12;100597.00;;;0.00
75822;BMP180;64454;51.984;9.838;2023-03-16T06:07:40;100591.00;;;0.30
75822;BMP180;64454;51.984;9.838;2023-03-16T06:10:08;100590.00;;;0.40
75822;BMP180;64454;51.984;9.838;2023-03-16T06:12:37;100586.00;;;0.40
75822;BMP180;64454;51.984;9.838;2023-03-16T06:15:06;100576.00;;;0.50
75822;BMP180;64454;51.984;9.838;2023-03-16T06:17:34;100591.00;;;0.60
75822;BMP180;64454;51.984;9.838;2023-03-16T06:20:02;100575.00;;;0.70
75822;BMP180;64454;51.984;9.838;2023-03-16T06:22:34;100575.00;;;0.60
75822;BMP180;64454;51.984;9.838;2023-03-16T06:25:01;100564.00;;;0.80
75822;BMP180;64454;51.984;9.838;2023-03-16T06:27:28;100569.00;;;0.90
75822;BMP180;64454;51.984;9.838;2023-03-16T06:29:56;100566.00;;;0.90
75822;BMP180;64454;51.984;9.838;2023-03-16T06:32:23;100567.00;;;1.00
75822;BMP180;64454;51.984;9.838;2023-03-16T06:34:50;100568.00;;;1.00
75822;BMP180;64454;51.984;9.838;2023-03-16T06:37:17;100562.00;;;1.00
75822;BMP180;64454;51.984;9.838;2023-03-16T06:39:43;100555.00;;;1.10
75822;BMP180;64454;51.984;9.838;2023-03-16T06:42:10;100560.00;;;1.20
75822;BMP180;64454;51.984;9.838;2023-03-16T06:44:37;100565.00;;;1.20
75822;BMP180;64454;51.984;9.838;2023-03-16T06:47:06;100568.00;;;1.20
75822;BMP180;64454;51.984;9.838;2023-03-16T06:49:33;100569.00;;;1.50
75822;BMP180;64454;51.984;9.838;2023-03-16T06:52:00;100559.00;;;1.60
75822;BMP180;64454;51.984;9.838;2023-03-16T06:54:28;100567.00;;;1.50
75822;BMP180;64454;51.984;9.838;2023-03-16T06:56:57;100569.00;;;1.60
75822;BMP180;64454;51.984;9.838;2023-03-16T06:59:24;100557.00;;;1.60
75822;BMP180;64454;51.984;9.838;2023-03-16T07:01:50;100549.00;;;1.90
75822;BMP180;64454;51.984;9.838;2023-03-16T07:04:20;100553.00;;;2.40
75822;BMP180;64454;51.984;9.838;2023-03-16T07:06:47;100565.00;;;2.30
75822;BMP180;64454;51.984;9.838;2023-03-16T07:09:14;100564.00;;;2.80
75822;BMP180;64454;51.984;9.838;2023-03-16T07:11:41;100570.00;;;2.70
75822;BMP180;64454;51.984;9.838;2023-03-16T07:14:08;100579.00;;;2.80
75822;BMP180;64454;51.984;9.838;2023-03-16T07:16:36;100583.00;;;2.80
75822;BMP180;64454;51.984;9.838;2023-03-16T07:19:03;100590.00;;;2.50
75822;BMP180;64454;51.984;9.838;2023-03-16T07:21:31;100593.00;;;2.70
75822;BMP180;64454;51.984;9.838;2023-03-16T07:24:04;100594.00;;;2.80
75822;BMP180;64454;51.984;9.838;2023-03-16T07:26:31;100594.00;;;2.60
75822;BMP180;64454;51.984;9.838;2023-03-16T07:28:58;100594.00;;;2.90
75822;BMP180;64454;51.984;9.838;2023-03-16T07:31:25;100597.00;;;2.70
75822;BMP180;64454;51.984;9.838;2023-03-16T07:33:52;100595.00;;;3.00
75822;BMP180;64454;51.984;9.838;2023-03-16T07:36:19;100598.00;;;3.00
75822;BMP180;64454;51.984;9.838;2023-03-16T07:38:47;100594.00;;;2.70
75822;BMP180;64454;51.984;9.838;2023-03-16T07:41:14;100601.00;;;2.90
75822;BMP180;64454;51.984;9.838;2023-03-16T07:43:40;100598.00;;;2.90
75822;BMP180;64454;51.984;9.838;2023-03-16T07:46:08;100609.00;;;3.60
75822;BMP180;64454;51.984;9.838;2023-03-16T07:48:38;100599.00;;;3.50
75822;BMP180;64454;51.984;9.838;2023-03-16T07:51:05;100598.00;;;3.20
75822;BMP180;64454;51.984;9.838;2023-03-16T07:53:32;100602.00;;;3.10
75822;BMP180;64454;51.984;9.838;2023-03-16T07:56:00;100599.00;;;3.60
75822;BMP180;64454;51.984;9.838;2023-03-16T07:58:27;100607.00;;;3.80
75822;BMP180;64454;51.984;9.838;2023-03-16T08:00:55;100595.00;;;3.80
75822;BMP180;64454;51.984;9.838;2023-03-16T08:03:23;100594.00;;;3.90
75822;BMP180;64454;51.984;9.838;2023-03-16T08:05:50;100595.00;;;3.80
75822;BMP180;64454;51.984;9.838;2023-03-16T08:08:16;100589.00;;;3.60
75822;BMP180;64454;51.984;9.838;2023-03-16T08:10:46;100589.00;;;4.00
75822;BMP180;64454;51.984;9.838;2023-03-16T08:13:14;100601.00;;;3.90
75822;BMP180;64454;51.984;9.838;2023-03-16T08:15:45;100596.00;;;3.90
75822;BMP180;64454;51.984;9.838;2023-03-16T08:18:12;100603.00;;;4.20
75822;BMP180;64454;51.984;9.838;2023-03-16T08:20:39;100604.00;;;3.80
75822;BMP180;64454;51.984;9.838;2023-03-16T08:23:06;100600.00;;;3.60
75822;BMP180;64454;51.984;9.838;2023-03-16T08:25:33;100616.00;;;3.80
75822;BMP180;64454;51.984;9.838;2023-03-16T08:28:00;100595.00;;;4.00
75822;BMP180;64454;51.984;9.838;2023-03-16T08:30:28;100604.00;;;4.00
75822;BMP180;64454;51.984;9.838;2023-03-16T08:32:55;100598.00;;;4.30
75822;BMP180;64454;51.984;9.838;2023-03-16T08:35:23;100578.00;;;4.20
75822;BMP180;64454;51.984;9.838;2023-03-16T08:37:51;100577.00;;;5.40
75822;BMP180;64454;51.984;9.838;2023-03-16T08:40:19;100569.00;;;6.30
75822;BMP180;64454;51.984;9.838;2023-03-16T08:42:47;100575.00;;;6.00
75822;BMP180;64454;51.984;9.838;2023-03-16T08:45:15;100577.00;;;6.30
75822;BMP180;64454;51.984;9.838;2023-03-16T08:47:45;100589.00;;;6.30
75822;BMP180;64454;51.984;9.838;2023-03-16T08:50:12;100590.00;;;6.50
75822;BMP180;64454;51.984;9.838;2023-03-16T08:52:40;100587.00;;;7.10
75822;BMP180;64454;51.984;9.838;2023-03-16T08:55:09;100589.00;;;7.00
75822;BMP180;64454;51.984;9.838;2023-03-16T08:57:36;100589.00;;;6.90
75822;BMP180;64454;51.984;9.838;2023-03-16T09:00:05;100589.00;;;7.90
75822;BMP180;64454;51.984;9.838;2023-03-16T09:02:38;100583.00;;;6.80
75822;BMP180;64454;51.984;9.838;2023-03-16T09:05:08;100575.00;;;7.40
75822;BMP180;64454;51.984;9.838;2023-03-16T09:07:36;100588.00;;;7.30
75822;BMP180;64454;51.984;9.838;2023-03-16T09:10:05;100592.00;;;7.70
75822;BMP180;64454;51.984;9.838;2023-03-16T09:12:35;100578.00;;;7.80
75822;BMP180;64454;51.984;9.838;2023-03-16T09:15:03;100569.00;;;7.80
75822;BMP180;64454;51.984;9.838;2023-03-16T09:17:30;100563.00;;;8.90
75822;BMP180;64454;51.984;9.838;2023-03-16T09:19:58;100570.00;;;8.20
75822;BMP180;64454;51.984;9.838;2023-03-16T09:22:26;100560.00;;;8.70
75822;BMP180;64454;51.984;9.838;2023-03-16T09:24:53;100566.00;;;8.10
75822;BMP180;64454;51.984;9.838;2023-03-16T09:27:20;100552.00;;;8.30
75822;BMP180;64454;51.984;9.838;2023-03-16T09:29:48;100549.00;;;8.90
75822;BMP180;64454;51.984;9.838;2023-03-16T09:32:15;100542.00;;;8.60
75822;BMP180;64454;51.984;9.838;2023-03-16T09:34:42;100551.00;;;9.40
75822;BMP180;64454;51.984;9.838;2023-03-16T09:37:09;100541.00;;;10.10
75822;BMP180;64454;51.984;9.838;2023-03-16T09:39:37;100539.00;;;11.60
75822;BMP180;64454;51.984;9.838;2023-03-16T09:42:16;100529.00;;;10.70
75822;BMP180;64454;51.984;9.838;2023-03-16T09:44:58;100523.00;;;10.40
75822;BMP180;64454;51.984;9.838;2023-03-16T09:47:30;100538.00;;;10.40
75822;BMP180;64454;51.984;9.838;2023-03-16T09:50:02;100537.00;;;9.50
75822;BMP180;64454;51.984;9.838;2023-03-16T09:52:40;100533.00;;;9.60
75822;BMP180;64454;51.984;9.838;2023-03-16T09:55:25;100524.00;;;10.30
75822;BMP180;64454;51.984;9.838;2023-03-16T09:57:53;100516.00;;;10.30
75822;BMP180;64454;51.984;9.838;2023-03-16T10:00:23;100523.00;;;10.90
75822;BMP180;64454;51.984;9.838;2023-03-16T10:03:07;100512.00;;;12.90
75822;BMP180;64454;51.984;9.838;2023-03-16T10:05:37;100526.00;;;12.60
75822;BMP180;64454;51.984;9.838;2023-03-16T10:08:12;100521.00;;;13.90
75822;BMP180;64454;51.984;9.838;2023-03-16T10:11:04;100524.00;;;13.00
75822;BMP180;64454;51.984;9.838;2023-03-16T10:13:42;100516.00;;;13.80
75822;BMP180;64454;51.984;9.838;2023-03-16T10:16:15;100518.00;;;11.50
75822;BMP180;64454;51.984;9.838;2023-03-16T10:18:47;100515.00;;;11.50
75822;BMP180;64454;51.984;9.838;2023-03-16T10:21:17;100508.00;;;12.10
75822;BMP180;64454;51.984;9.838;2023-03-16T10:23:45;100506.00;;;13.40
75822;BMP180;64454;51.984;9.838;2023-03-16T10:26:20;100497.00;;;14.00
75822;BMP180;64454;51.984;9.838;2023-03-16T10:28:48;100496.00;;;12.20
75822;BMP180;64454;51.984;9.838;2023-03-16T10:31:20;100501.00;;;11.90
75822;BMP180;64454;51.984;9.838;2023-03-16T10:33:53;100496.00;;;14.10
75822;BMP180;64454;51.984;9.838;2023-03-16T10:36:29;100500.00;;;14.20
75822;BMP180;64454;51.984;9.838;2023-03-16T10:39:00;100490.00;;;13.70
75822;BMP180;64454;51.984;9.838;2023-03-16T10:41:32;100479.00;;;13.20
75822;BMP180;64454;51.984;9.838;2023-03-16T10:44:05;100489.00;;;12.50
75822;BMP180;64454;51.984;9.838;2023-03-16T10:46:39;100500.00;;;13.70
75822;BMP180;64454;51.984;9.838;2023-03-16T10:49:23;100493.00;;;11.90
75822;BMP180;64454;51.984;9.838;2023-03-16T10:51:53;100487.00;;;12.20
75822;BMP180;64454;51.984;9.838;2023-03-16T10:54:28;100483.00;;;12.80
75822;BMP180;64454;51.984;9.838;2023-03-16T10:56:57;100481.00;;;11.80
75822;BMP180;64454;51.984;9.838;2023-03-16T10:59:30;100484.00;;;11.30
75822;BMP180;64454;51.984;9.838;2023-03-16T11:02:01;100490.00;;;10.50
75822;BMP180;64454;51.984;9.838;2023-03-16T11:04:31;100476.00;;;11.70
75822;BMP180;64454;51.984;9.838;2023-03-16T11:06:58;100471.00;;;11.60
75822;BMP180;64454;51.984;9.838;2023-03-16T11:09:31;100466.00;;;12.70
75822;BMP180;64454;51.984;9.838;2023-03-16T11:12:11;100478.00;;;13.60
75822;BMP180;64454;51.984;9.838;2023-03-16T11:14:43;100472.00;;;12.00
75822;BMP180;64454;51.984;9.838;2023-03-16T11:17:15;100461.00;;;13.90
75822;BMP180;64454;51.984;9.838;2023-03-16T11:19:50;100468.00;;;12.30
75822;BMP180;64454;51.984;9.838;2023-03-16T11:22:22;100469.00;;;12.10
75822;BMP180;64454;51.984;9.838;2023-03-16T11:24:55;100468.00;;;13.60
75822;BMP180;64454;51.984;9.838;2023-03-16T11:27:29;100464.00;;;14.60
75822;BMP180;64454;51.984;9.838;2023-03-16T11:30:07;100466.00;;;13.50
75822;BMP180;64454;51.984;9.838;2023-03-16T11:32:37;100468.00;;;11.60
75822;BMP180;64454;51.984;9.838;2023-03-16T11:35:14;100464.00;;;12.20
75822;BMP180;64454;51.984;9.838;2023-03-16T11:38:00;100465.00;;;13.70
75822;BMP180;64454;51.984;9.838;2023-03-16T11:40:40;100456.00;;;12.70
75822;BMP180;64454;51.984;9.838;2023-03-16T11:46:18;100456.00;;;13.10
75822;BMP180;64454;51.984;9.838;2023-03-16T11:48:57;100437.00;;;13.50
75822;BMP180;64454;51.984;9.838;2023-03-16T11:51:36;100436.00;;;13.40
75822;BMP180;64454;51.984;9.838;2023-03-16T11:54:29;100429.00;;;13.70
75822;BMP180;64454;51.984;9.838;2023-03-16T11:57:06;100430.00;;;12.20
75822;BMP180;64454;51.984;9.838;2023-03-16T12:00:02;100419.00;;;12.00
75822;BMP180;64454;51.984;9.838;2023-03-16T12:02:44;100434.00;;;12.50
75822;BMP180;64454;51.984;9.838;2023-03-16T12:05:36;100435.00;;;12.20
75822;BMP180;64454;51.984;9.838;2023-03-16T12:08:30;100430.00;;;12.90
75822;BMP180;64454;51.984;9.838;2023-03-16T12:11:04;100444.00;;;11.90
75822;BMP180;64454;51.984;9.838;2023-03-16T12:13:51;100432.00;;;11.20
75822;BMP180;64454;51.984;9.838;2023-03-16T12:16:29;100423.00;;;11.80
75822;BMP180;64454;51.984;9.838;2023-03-16T12:19:00;100442.00;;;9.60
75822;BMP180;64454;51.984;9.838;2023-03-16T12:21:33;100426.00;;;10.10
75822;BMP180;64454;51.984;9.838;2023-03-16T12:24:04;100437.00;;;10.10
75822;BMP180;64454;51.984;9.838;2023-03-16T12:26:38;100414.00;;;9.90
75822;BMP180;64454;51.984;9.838;2023-03-16T12:29:18;100409.00;;;10.20
75822;BMP180;64454;51.984;9.838;2023-03-16T12:31:53;100393.00;;;11.20
75822;BMP180;64454;51.984;9.838;2023-03-16T12:34:28;100395.00;;;11.30
75822;BMP180;64454;51.984;9.838;2023-03-16T12:37:21;100392.00;;;10.80
75822;BMP180;64454;51.984;9.838;2023-03-16T12:40:02;100400.00;;;10.70
75822;BMP180;64454;51.984;9.838;2023-03-16T12:43:23;100400.00;;;11.70
75822;BMP180;64454;51.984;9.838;2023-03-16T12:46:02;100388.00;;;11.10
75822;BMP180;64454;51.984;9.838;2023-03-16T12:48:37;100396.00;;;10.50
75822;BMP180;64454;51.984;9.838;2023-03-16T12:51:06;100403.00;;;10.60
75822;BMP180;64454;51.984;9.838;2023-03-16T12:53:43;100398.00;;;10.40
75822;BMP180;64454;51.984;9.838;2023-03-16T12:56:12;100400.00;;;10.50
75822;BMP180;64454;51.984;9.838;2023-03-16T12:58:45;100380.00;;;11.20
75822;BMP180;64454;51.984;9.838;2023-03-16T13:01:15;100363.00;;;12.00
75822;BMP180;64454;51.984;9.838;2023-03-16T13:03:48;100355.00;;;10.60
75822;BMP180;64454;51.984;9.838;2023-03-16T13:06:21;100352.00;;;11.20
75822;BMP180;64454;51.984;9.838;2023-03-16T13:08:54;100365.00;;;11.90
75822;BMP180;64454;51.984;9.838;2023-03-16T13:11:22;100354.00;;;11.70
75822;BMP180;64454;51.984;9.838;2023-03-16T13:14:04;100352.00;;;11.70
75822;BMP180;64454;51.984;9.838;2023-03-16T13:16:36;100357.00;;;12.10
75822;BMP180;64454;51.984;9.838;2023-03-16T13:19:24;100357.00;;;11.70
75822;BMP180;64454;51.984;9.838;2023-03-16T13:22:03;100363.00;;;10.60
75822;BMP180;64454;51.984;9.838;2023-03-16T13:24:38;100362.00;;;10.10
75822;BMP180;64454;51.984;9.838;2023-03-16T13:27:19;100363.00;;;9.60
75822;BMP180;64454;51.984;9.838;2023-03-16T13:29:57;100346.00;;;9.40
75822;BMP180;64454;51.984;9.838;2023-03-16T13:32:29;100351.00;;;9.50
75822;BMP180;64454;51.984;9.838;2023-03-16T13:34:59;100346.00;;;9.60
75822;BMP180;64454;51.984;9.838;2023-03-16T13:37:29;100336.00;;;9.60
75822;BMP180;64454;51.984;9.838;2023-03-16T13:39:58;100326.00;;;10.50
75822;BMP180;64454;51.984;9.838;2023-03-16T13:42:28;100323.00;;;10.30
75822;BMP180;64454;51.984;9.838;2023-03-16T13:44:57;100336.00;;;10.50
75822;BMP180;64454;51.984;9.838;2023-03-16T13:47:26;100319.00;;;11.30
75822;BMP180;64454;51.984;9.838;2023-03-16T13:49:57;100308.00;;;11.40
75822;BMP180;64454;51.984;9.838;2023-03-16T13:52:27;100312.00;;;11.00
75822;BMP180;64454;51.984;9.838;2023-03-16T13:54:56;100307.00;;;11.50
75822;BMP180;64454;51.984;9.838;2023-03-16T13:57:26;100302.00;;;10.80
75822;BMP180;64454;51.984;9.838;2023-03-16T14:00:03;100300.00;;;10.60
75822;BMP180;64454;51.984;9.838;2023-03-16T14:02:39;100313.00;;;10.80
75822;BMP180;64454;51.984;9.838;2023-03-16T14:05:17;100284.00;;;10.10
75822;BMP180;64454;51.984;9.838;2023-03-16T14:07:47;100292.00;;;10.10
75822;BMP180;64454;51.984;9.838;2023-03-16T14:10:15;100300.00;;;9.50
75822;BMP180;64454;51.984;9.838;2023-03-16T14:12:50;100292.00;;;9.70
75822;BMP180;64454;51.984;9.838;2023-03-16T14:15:18;100278.00;;;9.70
75822;BMP180;64454;51.984;9.838;2023-03-16T14:18:12;100280.00;;;9.50
75822;BMP180;64454;51.984;9.838;2023-03-16T14:20:39;100278.00;;;9.50
75822;BMP180;64454;51.984;9.838;2023-03-16T14:23:16;100277.00;;;9.60